Walworth, NY (14568)

2:04 PM EDT on September 30, 2014 (GMT -0400)
Chicken Thistle Farm | Change Station
CLOSE
Current Station
Personal Weather Station
Location: Walworth, NY
Elevation: 528 ft
Nearby Weather Stations

Elev 528 ft 43.11 °N, 77.28 °W | Updated 3 minutes ago

Partly Cloudy
Partly Cloudy
72.8 °F
Feels Like 74 °F
N
3.0
Wind Variable Wind from NW
Gusts 6.0 mph

Today
High -- | Low -- °F
--% Chance of Precip.
Yesterday
High -- | Low -- °F
Precip. -- in
7:05 AM 6:52 PM
Waxing Crescent, 38% visible
Pressure 29.90 in
Visibility 10.0 miles
Clouds Few 2600 ft
Scattered Clouds 20000 ft
Heat Index 74 °F
Dew Point 64 °F
Humidity 74%
Rainfall 0.00 in
Snow Depth Not available.
UV 5 out of 12
Pollen 1.30 out of 12
Air Quality Not available.
Flu Activity Not available.
METAR KROC 301754Z 02012KT 10SM FEW026 SCT200 22/15 A2989 RMK AO2 SLP124 T02170150 10239 20133 56004

More Conditions Fewer Conditions

Pressure 29.90 in
Visibility 10.0 miles
Clouds Few 2600 ft
Scattered Clouds 20000 ft
Heat Index 74 °F
Dew Point 64 °F
Humidity 74%
Rainfall 0.00 in
Snow Depth Not available.
UV 5 out of 12
Pollen 1.30 out of 12
Air Quality Not available.
Flu Activity Not available.
METAR KROC 301754Z 02012KT 10SM FEW026 SCT200 22/15 A2989 RMK AO2 SLP124 T02170150 10239 20133 56004

More Conditions Fewer Conditions

10-Day Weather Forecast

Almanac

Astronomy

Sep. 30, 2014 Rise Set
Actual Time 7:05 AM EDT 6:52 PM EDT
Civil Twilight 6:37 AM EDT 7:20 PM EDT
Nautical Twilight 6:03 AM EDT 7:53 PM EDT
Astronomical Twilight 5:30 AM EDT 8:26 PM EDT
Moon 1:18 PM EDT 11:13 PM EDT
Length of Visible Light 12h 43m
Length of Day
11h 46m
Tomorrow will be 2m 54s shorter.
Waxing Crescent, 38% of the Moon is Illuminated
Today
Waxing Crescent
Oct 1
First Quarter
Oct 8
Full
Oct 15
Last Quarter
Oct 23
New

Today's Extremes

State Highs State Lows

Community

WunderPhotos

Upload Photos

1,757,710 photos uploaded!

Nearby

Air Quality

  Air Quality AQ Index Pollutant
Tuesday Moderate
PM2.5
Tuesday Good
OZONE
Wednesday Good
PM2.5

Snow Depth

Station Depth Elevation
No new snow has been reported.

Earthquake Activity

City Distance Mag. Time & Date
No recent earthquake activity has been reported nearby.
Minimum magnitude displayed is 2.5.

Coastal Water Temperatures

Place Temperature
Buffalo, NY 66.9 °F
Alexandria Bay, NY 64.9 °F

Nearby Weather Stations